sensor_id;sensor_type;location;lat;lon;timestamp;P1;durP1;ratioP1;P2;durP2;ratioP2
44824;SDS011;30542;47.928;2.138;2022-11-11T00:00:37;2.63;;;1.38;;
44824;SDS011;30542;47.928;2.138;2022-11-11T00:05:37;1.45;;;1.15;;
44824;SDS011;30542;47.928;2.138;2022-11-11T00:10:38;1.73;;;1.40;;
44824;SDS011;30542;47.928;2.138;2022-11-11T00:15:38;2.60;;;1.40;;
44824;SDS011;30542;47.928;2.138;2022-11-11T00:20:39;1.50;;;1.27;;
44824;SDS011;30542;47.928;2.138;2022-11-11T00:25:58;2.35;;;1.58;;
44824;SDS011;30542;47.928;2.138;2022-11-11T00:31:03;2.08;;;1.40;;
44824;SDS011;30542;47.928;2.138;2022-11-11T00:36:05;2.28;;;1.70;;
44824;SDS011;30542;47.928;2.138;2022-11-11T00:41:06;3.05;;;1.90;;
44824;SDS011;30542;47.928;2.138;2022-11-11T00:46:07;3.83;;;1.97;;
44824;SDS011;30542;47.928;2.138;2022-11-11T00:51:26;2.03;;;1.83;;
44824;SDS011;30542;47.928;2.138;2022-11-11T00:56:26;1.70;;;1.60;;
44824;SDS011;30542;47.928;2.138;2022-11-11T01:01:27;2.30;;;1.63;;
44824;SDS011;30542;47.928;2.138;2022-11-11T01:06:27;1.58;;;1.30;;
44824;SDS011;30542;47.928;2.138;2022-11-11T01:11:28;1.90;;;1.40;;
44824;SDS011;30542;47.928;2.138;2022-11-11T01:16:28;1.93;;;1.00;;
44824;SDS011;30542;47.928;2.138;2022-11-11T01:21:28;2.47;;;1.33;;
44824;SDS011;30542;47.928;2.138;2022-11-11T01:26:29;1.80;;;1.47;;
44824;SDS011;30542;47.928;2.138;2022-11-11T01:31:29;2.53;;;1.30;;
44824;SDS011;30542;47.928;2.138;2022-11-11T01:36:30;1.43;;;1.10;;
44824;SDS011;30542;47.928;2.138;2022-11-11T01:41:31;1.77;;;1.43;;
44824;SDS011;30542;47.928;2.138;2022-11-11T01:46:35;1.27;;;1.10;;
44824;SDS011;30542;47.928;2.138;2022-11-11T01:51:41;1.45;;;1.08;;
44824;SDS011;30542;47.928;2.138;2022-11-11T01:56:45;1.98;;;1.30;;
44824;SDS011;30542;47.928;2.138;2022-11-11T02:01:48;1.48;;;1.00;;
44824;SDS011;30542;47.928;2.138;2022-11-11T02:06:50;1.52;;;0.95;;
44824;SDS011;30542;47.928;2.138;2022-11-11T02:11:52;0.80;;;0.70;;
44824;SDS011;30542;47.928;2.138;2022-11-11T02:17:14;1.30;;;1.17;;
44824;SDS011;30542;47.928;2.138;2022-11-11T02:22:22;1.17;;;0.75;;
44824;SDS011;30542;47.928;2.138;2022-11-11T02:27:27;1.52;;;0.73;;
44824;SDS011;30542;47.928;2.138;2022-11-11T02:32:30;1.17;;;0.60;;
44824;SDS011;30542;47.928;2.138;2022-11-11T02:37:30;1.30;;;0.70;;
44824;SDS011;30542;47.928;2.138;2022-11-11T02:42:32;1.00;;;0.70;;
44824;SDS011;30542;47.928;2.138;2022-11-11T02:47:34;1.17;;;0.70;;
44824;SDS011;30542;47.928;2.138;2022-11-11T02:52:34;1.67;;;0.70;;
44824;SDS011;30542;47.928;2.138;2022-11-11T02:57:35;1.10;;;0.70;;
44824;SDS011;30542;47.928;2.138;2022-11-11T03:02:36;1.52;;;0.68;;
44824;SDS011;30542;47.928;2.138;2022-11-11T03:07:36;1.03;;;0.77;;
44824;SDS011;30542;47.928;2.138;2022-11-11T03:12:37;1.90;;;0.90;;
44824;SDS011;30542;47.928;2.138;2022-11-11T03:17:37;1.50;;;0.80;;
44824;SDS011;30542;47.928;2.138;2022-11-11T03:22:40;1.00;;;0.90;;
44824;SDS011;30542;47.928;2.138;2022-11-11T03:27:40;1.03;;;0.50;;
44824;SDS011;30542;47.928;2.138;2022-11-11T03:32:42;1.30;;;0.50;;
44824;SDS011;30542;47.928;2.138;2022-11-11T03:37:42;0.70;;;0.47;;
44824;SDS011;30542;47.928;2.138;2022-11-11T03:43:02;1.13;;;0.90;;
44824;SDS011;30542;47.928;2.138;2022-11-11T03:48:02;0.95;;;0.50;;
44824;SDS011;30542;47.928;2.138;2022-11-11T03:53:04;2.25;;;0.80;;
44824;SDS011;30542;47.928;2.138;2022-11-11T03:58:05;1.05;;;0.47;;
44824;SDS011;30542;47.928;2.138;2022-11-11T04:03:08;1.85;;;0.70;;
44824;SDS011;30542;47.928;2.138;2022-11-11T04:08:28;1.20;;;0.63;;
44824;SDS011;30542;47.928;2.138;2022-11-11T04:13:47;1.33;;;0.38;;
44824;SDS011;30542;47.928;2.138;2022-11-11T04:19:07;0.80;;;0.40;;
44824;SDS011;30542;47.928;2.138;2022-11-11T04:24:26;1.27;;;0.57;;
44824;SDS011;30542;47.928;2.138;2022-11-11T04:29:45;1.25;;;0.70;;
44824;SDS011;30542;47.928;2.138;2022-11-11T04:34:50;0.60;;;0.60;;
44824;SDS011;30542;47.928;2.138;2022-11-11T04:39:52;0.75;;;0.50;;
44824;SDS011;30542;47.928;2.138;2022-11-11T04:45:12;0.80;;;0.40;;
44824;SDS011;30542;47.928;2.138;2022-11-11T04:50:40;0.57;;;0.30;;
44824;SDS011;30542;47.928;2.138;2022-11-11T04:55:42;1.95;;;0.50;;
44824;SDS011;30542;47.928;2.138;2022-11-11T05:01:02;0.75;;;0.43;;
44824;SDS011;30542;47.928;2.138;2022-11-11T05:06:03;0.80;;;0.50;;
44824;SDS011;30542;47.928;2.138;2022-11-11T05:11:29;0.70;;;0.40;;
44824;SDS011;30542;47.928;2.138;2022-11-11T05:16:32;1.05;;;0.47;;
44824;SDS011;30542;47.928;2.138;2022-11-11T05:21:56;1.33;;;0.57;;
44824;SDS011;30542;47.928;2.138;2022-11-11T05:27:02;1.17;;;0.40;;
44824;SDS011;30542;47.928;2.138;2022-11-11T05:32:03;1.93;;;0.30;;
44824;SDS011;30542;47.928;2.138;2022-11-11T05:37:04;0.50;;;0.30;;
44824;SDS011;30542;47.928;2.138;2022-11-11T05:42:04;0.40;;;0.30;;
44824;SDS011;30542;47.928;2.138;2022-11-11T05:47:05;2.15;;;0.40;;
44824;SDS011;30542;47.928;2.138;2022-11-11T05:52:05;1.50;;;0.30;;
44824;SDS011;30542;47.928;2.138;2022-11-11T05:57:08;0.35;;;0.30;;
44824;SDS011;30542;47.928;2.138;2022-11-11T06:02:09;0.77;;;0.50;;
44824;SDS011;30542;47.928;2.138;2022-11-11T06:07:09;0.68;;;0.40;;
44824;SDS011;30542;47.928;2.138;2022-11-11T06:12:10;0.50;;;0.40;;
44824;SDS011;30542;47.928;2.138;2022-11-11T06:17:10;0.67;;;0.20;;
44824;SDS011;30542;47.928;2.138;2022-11-11T06:22:10;0.83;;;0.20;;
44824;SDS011;30542;47.928;2.138;2022-11-11T06:27:11;0.87;;;0.37;;
44824;SDS011;30542;47.928;2.138;2022-11-11T06:32:11;0.60;;;0.30;;
44824;SDS011;30542;47.928;2.138;2022-11-11T06:37:11;0.47;;;0.20;;
44824;SDS011;30542;47.928;2.138;2022-11-11T06:42:12;0.63;;;0.30;;
44824;SDS011;30542;47.928;2.138;2022-11-11T06:47:12;0.30;;;0.20;;
44824;SDS011;30542;47.928;2.138;2022-11-11T06:52:13;1.92;;;0.30;;
44824;SDS011;30542;47.928;2.138;2022-11-11T06:57:13;1.83;;;0.30;;
44824;SDS011;30542;47.928;2.138;2022-11-11T07:02:13;0.70;;;0.30;;
44824;SDS011;30542;47.928;2.138;2022-11-11T07:07:14;0.77;;;0.30;;
44824;SDS011;30542;47.928;2.138;2022-11-11T07:12:16;1.23;;;0.20;;
44824;SDS011;30542;47.928;2.138;2022-11-11T07:17:17;0.98;;;0.30;;
44824;SDS011;30542;47.928;2.138;2022-11-11T07:22:17;0.50;;;0.30;;
44824;SDS011;30542;47.928;2.138;2022-11-11T07:27:17;0.67;;;0.20;;
44824;SDS011;30542;47.928;2.138;2022-11-11T07:32:18;0.40;;;0.30;;
44824;SDS011;30542;47.928;2.138;2022-11-11T07:37:18;3.50;;;0.30;;
44824;SDS011;30542;47.928;2.138;2022-11-11T07:42:19;1.10;;;0.27;;
44824;SDS011;30542;47.928;2.138;2022-11-11T07:47:20;1.17;;;0.30;;
44824;SDS011;30542;47.928;2.138;2022-11-11T07:52:20;0.60;;;0.40;;
44824;SDS011;30542;47.928;2.138;2022-11-11T07:57:22;1.30;;;0.50;;
44824;SDS011;30542;47.928;2.138;2022-11-11T08:02:23;0.75;;;0.30;;
44824;SDS011;30542;47.928;2.138;2022-11-11T08:07:23;0.50;;;0.30;;
44824;SDS011;30542;47.928;2.138;2022-11-11T08:12:24;2.20;;;0.30;;
44824;SDS011;30542;47.928;2.138;2022-11-11T08:22:42;0.40;;;0.28;;
44824;SDS011;30542;47.928;2.138;2022-11-11T08:27:43;1.43;;;0.33;;
44824;SDS011;30542;47.928;2.138;2022-11-11T08:32:43;0.53;;;0.23;;
44824;SDS011;30542;47.928;2.138;2022-11-11T08:37:44;0.90;;;0.20;;
44824;SDS011;30542;47.928;2.138;2022-11-11T08:42:44;2.30;;;0.40;;
44824;SDS011;30542;47.928;2.138;2022-11-11T08:47:45;0.88;;;0.20;;
44824;SDS011;30542;47.928;2.138;2022-11-11T08:52:46;2.83;;;0.50;;
44824;SDS011;30542;47.928;2.138;2022-11-11T08:57:47;1.30;;;0.30;;
44824;SDS011;30542;47.928;2.138;2022-11-11T09:02:47;1.60;;;0.45;;
44824;SDS011;30542;47.928;2.138;2022-11-11T09:07:48;2.17;;;0.70;;
44824;SDS011;30542;47.928;2.138;2022-11-11T09:12:48;2.30;;;1.00;;
44824;SDS011;30542;47.928;2.138;2022-11-11T09:17:55;3.35;;;0.80;;
44824;SDS011;30542;47.928;2.138;2022-11-11T09:22:56;1.95;;;0.65;;
44824;SDS011;30542;47.928;2.138;2022-11-11T09:27:57;4.63;;;1.00;;
44824;SDS011;30542;47.928;2.138;2022-11-11T09:33:00;5.95;;;1.05;;
44824;SDS011;30542;47.928;2.138;2022-11-11T09:38:04;3.20;;;0.93;;
44824;SDS011;30542;47.928;2.138;2022-11-11T09:43:08;8.13;;;1.10;;
44824;SDS011;30542;47.928;2.138;2022-11-11T09:54:03;5.65;;;1.00;;
44824;SDS011;30542;47.928;2.138;2022-11-11T09:59:10;5.95;;;1.83;;
44824;SDS011;30542;47.928;2.138;2022-11-11T10:09:40;10.50;;;4.65;;
44824;SDS011;30542;47.928;2.138;2022-11-11T10:14:47;6.43;;;3.63;;
44824;SDS011;30542;47.928;2.138;2022-11-11T10:25:21;8.00;;;2.65;;
44824;SDS011;30542;47.928;2.138;2022-11-11T10:30:25;4.22;;;2.05;;
44824;SDS011;30542;47.928;2.138;2022-11-11T10:35:29;4.00;;;1.90;;
44824;SDS011;30542;47.928;2.138;2022-11-11T10:40:36;3.85;;;1.70;;
44824;SDS011;30542;47.928;2.138;2022-11-11T10:45:45;4.05;;;1.80;;
44824;SDS011;30542;47.928;2.138;2022-11-11T10:50:53;4.50;;;1.70;;
44824;SDS011;30542;47.928;2.138;2022-11-11T11:06:48;2.85;;;1.27;;
44824;SDS011;30542;47.928;2.138;2022-11-11T11:11:53;4.13;;;1.40;;
44824;SDS011;30542;47.928;2.138;2022-11-11T11:17:28;5.78;;;1.35;;
44824;SDS011;30542;47.928;2.138;2022-11-11T11:22:43;5.32;;;1.52;;
44824;SDS011;30542;47.928;2.138;2022-11-11T11:28:09;3.22;;;1.65;;
44824;SDS011;30542;47.928;2.138;2022-11-11T11:33:11;4.47;;;1.65;;
44824;SDS011;30542;47.928;2.138;2022-11-11T11:38:12;3.40;;;1.20;;
44824;SDS011;30542;47.928;2.138;2022-11-11T11:48:40;2.58;;;1.05;;
44824;SDS011;30542;47.928;2.138;2022-11-11T11:59:04;1.25;;;1.15;;
44824;SDS011;30542;47.928;2.138;2022-11-11T12:20:43;2.42;;;1.20;;
44824;SDS011;30542;47.928;2.138;2022-11-11T13:24:21;1.98;;;1.40;;
44824;SDS011;30542;47.928;2.138;2022-11-11T13:29:34;1.98;;;1.23;;
44824;SDS011;30542;47.928;2.138;2022-11-11T13:34:47;1.17;;;1.02;;
44824;SDS011;30542;47.928;2.138;2022-11-11T13:39:49;2.65;;;1.00;;
44824;SDS011;30542;47.928;2.138;2022-11-11T13:44:53;2.40;;;1.27;;
44824;SDS011;30542;47.928;2.138;2022-11-11T13:49:58;2.75;;;1.20;;
44824;SDS011;30542;47.928;2.138;2022-11-11T13:55:07;1.35;;;0.88;;
44824;SDS011;30542;47.928;2.138;2022-11-11T14:05:21;1.15;;;0.95;;
44824;SDS011;30542;47.928;2.138;2022-11-11T14:15:44;1.20;;;1.10;;
44824;SDS011;30542;47.928;2.138;2022-11-11T14:20:50;2.25;;;1.00;;
44824;SDS011;30542;47.928;2.138;2022-11-11T14:52:02;2.80;;;1.27;;
44824;SDS011;30542;47.928;2.138;2022-11-11T14:57:21;2.90;;;0.95;;
44824;SDS011;30542;47.928;2.138;2022-11-11T15:02:30;2.47;;;1.63;;
44824;SDS011;30542;47.928;2.138;2022-11-11T15:07:41;2.38;;;0.90;;
44824;SDS011;30542;47.928;2.138;2022-11-11T15:13:24;2.90;;;1.30;;
44824;SDS011;30542;47.928;2.138;2022-11-11T15:23:37;3.20;;;1.42;;
44824;SDS011;30542;47.928;2.138;2022-11-11T15:40:00;3.78;;;1.20;;
44824;SDS011;30542;47.928;2.138;2022-11-11T15:45:04;2.05;;;0.90;;
44824;SDS011;30542;47.928;2.138;2022-11-11T15:50:29;1.98;;;1.30;;
44824;SDS011;30542;47.928;2.138;2022-11-11T15:55:34;3.53;;;1.38;;
44824;SDS011;30542;47.928;2.138;2022-11-11T16:00:36;1.73;;;1.05;;
44824;SDS011;30542;47.928;2.138;2022-11-11T16:05:37;2.30;;;1.38;;
44824;SDS011;30542;47.928;2.138;2022-11-11T16:10:37;2.60;;;1.20;;
44824;SDS011;30542;47.928;2.138;2022-11-11T16:15:44;2.03;;;0.95;;
44824;SDS011;30542;47.928;2.138;2022-11-11T16:20:48;3.10;;;1.20;;
44824;SDS011;30542;47.928;2.138;2022-11-11T16:26:05;2.35;;;1.15;;
44824;SDS011;30542;47.928;2.138;2022-11-11T16:31:20;2.20;;;1.13;;
44824;SDS011;30542;47.928;2.138;2022-11-11T16:36:21;1.67;;;1.30;;
44824;SDS011;30542;47.928;2.138;2022-11-11T16:51:42;2.67;;;1.15;;
44824;SDS011;30542;47.928;2.138;2022-11-11T16:56:45;1.40;;;0.70;;
44824;SDS011;30542;47.928;2.138;2022-11-11T17:01:49;1.60;;;1.00;;
44824;SDS011;30542;47.928;2.138;2022-11-11T17:06:51;3.05;;;1.08;;
44824;SDS011;30542;47.928;2.138;2022-11-11T17:11:54;2.25;;;1.00;;
44824;SDS011;30542;47.928;2.138;2022-11-11T17:16:55;1.92;;;1.00;;
44824;SDS011;30542;47.928;2.138;2022-11-11T17:22:09;1.50;;;1.10;;
44824;SDS011;30542;47.928;2.138;2022-11-11T17:27:11;3.22;;;1.00;;
44824;SDS011;30542;47.928;2.138;2022-11-11T17:32:11;3.37;;;1.30;;
44824;SDS011;30542;47.928;2.138;2022-11-11T17:37:11;5.03;;;1.40;;
44824;SDS011;30542;47.928;2.138;2022-11-11T17:42:12;4.97;;;1.03;;
44824;SDS011;30542;47.928;2.138;2022-11-11T17:47:13;2.92;;;1.10;;
44824;SDS011;30542;47.928;2.138;2022-11-11T17:52:14;3.17;;;1.13;;
44824;SDS011;30542;47.928;2.138;2022-11-11T17:57:15;4.15;;;1.20;;
44824;SDS011;30542;47.928;2.138;2022-11-11T18:02:16;2.13;;;1.20;;
44824;SDS011;30542;47.928;2.138;2022-11-11T18:07:16;1.50;;;1.03;;
44824;SDS011;30542;47.928;2.138;2022-11-11T18:12:16;1.53;;;0.80;;
44824;SDS011;30542;47.928;2.138;2022-11-11T18:17:17;2.33;;;1.10;;
44824;SDS011;30542;47.928;2.138;2022-11-11T18:22:17;1.83;;;0.87;;
44824;SDS011;30542;47.928;2.138;2022-11-11T18:27:18;2.77;;;1.40;;
44824;SDS011;30542;47.928;2.138;2022-11-11T18:32:18;2.43;;;1.07;;
44824;SDS011;30542;47.928;2.138;2022-11-11T18:37:18;6.30;;;3.23;;
44824;SDS011;30542;47.928;2.138;2022-11-11T18:42:19;12.67;;;10.17;;
44824;SDS011;30542;47.928;2.138;2022-11-11T18:47:19;17.43;;;13.07;;
44824;SDS011;30542;47.928;2.138;2022-11-11T18:52:19;20.40;;;15.07;;
44824;SDS011;30542;47.928;2.138;2022-11-11T18:57:20;25.17;;;19.37;;
44824;SDS011;30542;47.928;2.138;2022-11-11T19:02:20;31.70;;;22.13;;
44824;SDS011;30542;47.928;2.138;2022-11-11T19:07:20;27.73;;;20.97;;
44824;SDS011;30542;47.928;2.138;2022-11-11T19:12:21;32.33;;;23.37;;
44824;SDS011;30542;47.928;2.138;2022-11-11T19:17:21;30.20;;;23.27;;
44824;SDS011;30542;47.928;2.138;2022-11-11T19:22:21;31.53;;;23.67;;
44824;SDS011;30542;47.928;2.138;2022-11-11T19:27:22;33.00;;;24.53;;
44824;SDS011;30542;47.928;2.138;2022-11-11T19:32:22;31.17;;;24.33;;
44824;SDS011;30542;47.928;2.138;2022-11-11T19:37:22;36.15;;;26.42;;
44824;SDS011;30542;47.928;2.138;2022-11-11T19:42:23;32.30;;;24.17;;
44824;SDS011;30542;47.928;2.138;2022-11-11T19:47:23;34.83;;;25.60;;
44824;SDS011;30542;47.928;2.138;2022-11-11T19:52:24;31.27;;;24.60;;
44824;SDS011;30542;47.928;2.138;2022-11-11T19:57:24;30.63;;;22.43;;
44824;SDS011;30542;47.928;2.138;2022-11-11T20:02:25;26.40;;;21.08;;
44824;SDS011;30542;47.928;2.138;2022-11-11T20:07:25;30.93;;;22.50;;
44824;SDS011;30542;47.928;2.138;2022-11-11T20:12:26;31.80;;;20.87;;
44824;SDS011;30542;47.928;2.138;2022-11-11T20:17:26;28.60;;;21.02;;
44824;SDS011;30542;47.928;2.138;2022-11-11T20:22:27;26.25;;;20.83;;
44824;SDS011;30542;47.928;2.138;2022-11-11T20:27:27;28.60;;;21.47;;
44824;SDS011;30542;47.928;2.138;2022-11-11T20:32:28;24.60;;;18.67;;
44824;SDS011;30542;47.928;2.138;2022-11-11T20:37:29;25.85;;;20.05;;
44824;SDS011;30542;47.928;2.138;2022-11-11T20:42:29;24.93;;;19.37;;
44824;SDS011;30542;47.928;2.138;2022-11-11T20:47:30;25.07;;;19.43;;
44824;SDS011;30542;47.928;2.138;2022-11-11T20:52:30;24.57;;;18.97;;
44824;SDS011;30542;47.928;2.138;2022-11-11T20:57:33;22.47;;;18.20;;
44824;SDS011;30542;47.928;2.138;2022-11-11T21:02:33;21.63;;;16.13;;
44824;SDS011;30542;47.928;2.138;2022-11-11T21:07:34;23.47;;;17.47;;
44824;SDS011;30542;47.928;2.138;2022-11-11T21:12:34;20.55;;;16.58;;
44824;SDS011;30542;47.928;2.138;2022-11-11T21:17:35;21.37;;;15.93;;
44824;SDS011;30542;47.928;2.138;2022-11-11T21:22:35;19.25;;;15.98;;
44824;SDS011;30542;47.928;2.138;2022-11-11T21:27:35;19.53;;;14.80;;
44824;SDS011;30542;47.928;2.138;2022-11-11T21:32:36;20.97;;;15.97;;
44824;SDS011;30542;47.928;2.138;2022-11-11T21:37:36;20.13;;;15.97;;
44824;SDS011;30542;47.928;2.138;2022-11-11T21:42:36;18.80;;;14.47;;
44824;SDS011;30542;47.928;2.138;2022-11-11T21:47:37;18.07;;;14.97;;
44824;SDS011;30542;47.928;2.138;2022-11-11T21:52:37;18.73;;;14.23;;
44824;SDS011;30542;47.928;2.138;2022-11-11T21:57:37;16.53;;;13.87;;
44824;SDS011;30542;47.928;2.138;2022-11-11T22:02:38;17.10;;;13.73;;
44824;SDS011;30542;47.928;2.138;2022-11-11T22:07:38;17.97;;;14.17;;
44824;SDS011;30542;47.928;2.138;2022-11-11T22:12:39;17.40;;;13.23;;
44824;SDS011;30542;47.928;2.138;2022-11-11T22:17:39;16.90;;;13.83;;
44824;SDS011;30542;47.928;2.138;2022-11-11T22:22:39;15.33;;;12.80;;
44824;SDS011;30542;47.928;2.138;2022-11-11T22:27:40;15.73;;;12.57;;
44824;SDS011;30542;47.928;2.138;2022-11-11T22:32:40;16.50;;;12.17;;
44824;SDS011;30542;47.928;2.138;2022-11-11T22:37:40;15.30;;;11.47;;
44824;SDS011;30542;47.928;2.138;2022-11-11T22:42:41;15.87;;;11.83;;
44824;SDS011;30542;47.928;2.138;2022-11-11T22:47:41;13.60;;;11.80;;
44824;SDS011;30542;47.928;2.138;2022-11-11T22:52:45;16.17;;;11.90;;
44824;SDS011;30542;47.928;2.138;2022-11-11T22:57:46;13.68;;;11.13;;
44824;SDS011;30542;47.928;2.138;2022-11-11T23:02:47;12.85;;;10.40;;
44824;SDS011;30542;47.928;2.138;2022-11-11T23:07:47;12.70;;;10.43;;
44824;SDS011;30542;47.928;2.138;2022-11-11T23:12:47;12.93;;;10.57;;
44824;SDS011;30542;47.928;2.138;2022-11-11T23:17:48;13.90;;;11.00;;
44824;SDS011;30542;47.928;2.138;2022-11-11T23:22:48;12.47;;;9.83;;
44824;SDS011;30542;47.928;2.138;2022-11-11T23:27:48;13.20;;;10.60;;
44824;SDS011;30542;47.928;2.138;2022-11-11T23:32:51;11.53;;;9.87;;
44824;SDS011;30542;47.928;2.138;2022-11-11T23:37:52;12.82;;;10.57;;
44824;SDS011;30542;47.928;2.138;2022-11-11T23:42:52;11.67;;;9.00;;
44824;SDS011;30542;47.928;2.138;2022-11-11T23:47:52;10.13;;;9.03;;
44824;SDS011;30542;47.928;2.138;2022-11-11T23:52:53;11.47;;;9.60;;
44824;SDS011;30542;47.928;2.138;2022-11-11T23:57:53;10.90;;;8.60;;
